PWSweather.com
Personal Weather Stations
Station Observations
IPODRAVI2
Croatia, Trnovec BartoloveckiHR

CroatiaTrnovec BartoloveckiHR

Lat: 46.2947, Lon: 16.3989

Elevation: 535

Station Type: Davis Vantage Pro2 plus

http://www.pljusak.com/trnovec1/wx.html

High Low Average
Temperature 61.1°F16.2°C 51.3°F10.7°C 56.7°F13.7°C
Dew Point 54.6°F12.6°C 49.3°F9.6°C 52.6°F11.4°C
Winds 6.1 mph 9.8 kmh Calm Calm 2.0 mph SW3.2 kmh SW
Wind Gusts 9.0 mph14.5 kmh -- 3.0 mph4.8 kmh
Humidity 94% 69% 87%
Pressure 30.08 in1018.6 mb 29.87 in1011.5 mb -
Precipitation 0.76 in19.3 mm - -
Hour Temp Dew Point Humidity Winds Wind Gusts Pressure Precip Precip Rate Daily Precip Total
12:00 AM 60.5°F15.8°C 51.4°F10.8°C 72% 0.3 mph SSW0.5 kmh SSW 3.0 mph4.8 kmh 29.88 in1011.9 mb 0.00 in0.0 mm 0.00 in/hr0.0 mm/hr 0.00 in0.0 mm
12:10 AM 60.5°F15.8°C 51.0°F10.6°C 71% 2.3 mph SW3.7 kmh SW 4.0 mph6.4 kmh 29.88 in1011.9 mb 0.00 in0.0 mm 0.00 in/hr0.0 mm/hr 0.00 in0.0 mm
12:20 AM 60.9°F16.1°C 51.0°F10.6°C 70% 2.7 mph SSW4.3 kmh SSW 5.0 mph8.0 kmh 29.88 in1011.9 mb 0.00 in0.0 mm 0.00 in/hr0.0 mm/hr 0.00 in0.0 mm
12:30 AM 61.1°F16.2°C 50.9°F10.5°C 69% 3.0 mph SSW4.8 kmh SSW 5.0 mph8.0 kmh 29.88 in1011.9 mb 0.00 in0.0 mm 0.00 in/hr0.0 mm/hr 0.00 in0.0 mm
12:40 AM 61.0°F16.1°C 51.2°F10.7°C 70% 1.0 mph SW1.6 kmh SW 5.0 mph8.0 kmh 29.87 in1011.5 mb 0.00 in0.0 mm 0.00 in/hr0.0 mm/hr 0.00 in0.0 mm
12:50 AM 60.8°F16.0°C 51.3°F10.7°C 71% 0.4 mph SSW0.6 kmh SSW 1.0 mph1.6 kmh 29.88 in1011.9 mb 0.00 in0.0 mm 0.00 in/hr0.0 mm/hr 0.00 in0.0 mm
01:00 AM 60.5°F15.8°C 51.0°F10.6°C 71% 0.4 mph SW0.6 kmh SW 2.0 mph3.2 kmh 29.88 in1011.9 mb 0.00 in0.0 mm 0.00 in/hr0.0 mm/hr 0.00 in0.0 mm
01:10 AM 60.3°F15.7°C 51.2°F10.7°C 72% 1.4 mph SW2.3 kmh SW 2.0 mph3.2 kmh 29.88 in1011.9 mb 0.00 in0.0 mm 0.00 in/hr0.0 mm/hr 0.00 in0.0 mm
01:20 AM 60.1°F15.6°C 51.4°F10.8°C 73% 1.0 mph S1.6 kmh S 3.0 mph4.8 kmh 29.87 in1011.5 mb 0.00 in0.0 mm 0.00 in/hr0.0 mm/hr 0.00 in0.0 mm
01:30 AM 59.9°F15.5°C 51.6°F10.9°C 74% Calm Calm -- 29.88 in1011.9 mb 0.00 in0.0 mm 0.00 in/hr0.0 mm/hr 0.00 in0.0 mm
01:40 AM 59.7°F15.4°C 51.4°F10.8°C 74% Calm Calm -- 29.88 in1011.9 mb 0.00 in0.0 mm 0.00 in/hr0.0 mm/hr 0.00 in0.0 mm
01:50 AM 59.5°F15.3°C 52.3°F11.3°C 77% Calm Calm -- 29.88 in1011.9 mb 0.00 in0.0 mm 0.00 in/hr0.0 mm/hr 0.00 in0.0 mm
02:00 AM 59.3°F15.2°C 52.4°F11.3°C 78% Calm Calm -- 29.88 in1011.9 mb 0.00 in0.0 mm 0.00 in/hr0.0 mm/hr 0.00 in0.0 mm
02:10 AM 59.0°F15.0°C 53.2°F11.8°C 81% Calm Calm -- 29.88 in1011.9 mb 0.00 in0.0 mm 0.00 in/hr0.0 mm/hr 0.00 in0.0 mm
02:20 AM 58.7°F14.8°C 53.5°F11.9°C 83% Calm Calm -- 29.88 in1011.9 mb 0.01 in0.3 mm 0.06 in/hr1.5 mm/hr 0.01 in0.3 mm
02:30 AM 58.4°F14.7°C 53.9°F12.2°C 85% Calm Calm -- 29.88 in1011.9 mb 0.00 in0.0 mm 0.00 in/hr0.0 mm/hr 0.01 in0.3 mm
02:40 AM 58.1°F14.5°C 53.6°F12.0°C 85% Calm Calm -- 29.88 in1011.9 mb 0.01 in0.3 mm 0.06 in/hr1.5 mm/hr 0.02 in0.5 mm
02:50 AM 57.9°F14.4°C 53.4°F11.9°C 85% 1.3 mph S2.1 kmh S 2.0 mph3.2 kmh 29.88 in1011.9 mb 0.00 in0.0 mm 0.00 in/hr0.0 mm/hr 0.02 in0.5 mm
03:00 AM 57.8°F14.3°C 53.3°F11.8°C 85% 1.1 mph S1.8 kmh S 2.0 mph3.2 kmh 29.88 in1011.9 mb 0.00 in0.0 mm 0.00 in/hr0.0 mm/hr 0.02 in0.5 mm
03:10 AM 57.5°F14.2°C 53.7°F12.1°C 87% 1.1 mph SSW1.8 kmh SSW 3.0 mph4.8 kmh 29.88 in1011.9 mb 0.01 in0.3 mm 0.06 in/hr1.5 mm/hr 0.02 in0.5 mm
03:20 AM 57.1°F13.9°C 53.6°F12.0°C 88% 2.1 mph S3.4 kmh S 3.0 mph4.8 kmh 29.88 in1011.9 mb 0.00 in0.0 mm 0.00 in/hr0.0 mm/hr 0.02 in0.5 mm
03:30 AM 56.9°F13.8°C 54.0°F12.2°C 90% 1.4 mph S2.3 kmh S 3.0 mph4.8 kmh 29.87 in1011.5 mb 0.00 in0.0 mm 0.00 in/hr0.0 mm/hr 0.02 in0.5 mm
03:40 AM 56.8°F13.8°C 54.2°F12.3°C 91% 0.1 mph S0.2 kmh S -- 29.87 in1011.5 mb 0.00 in0.0 mm 0.00 in/hr0.0 mm/hr 0.02 in0.5 mm
03:50 AM 56.7°F13.7°C 54.1°F12.3°C 91% Calm Calm -- 29.88 in1011.9 mb 0.00 in0.0 mm 0.00 in/hr0.0 mm/hr 0.02 in0.5 mm
04:00 AM 56.7°F13.7°C 54.1°F12.3°C 91% 1.3 mph S2.1 kmh S 2.0 mph3.2 kmh 29.88 in1011.9 mb 0.00 in0.0 mm 0.00 in/hr0.0 mm/hr 0.02 in0.5 mm
04:10 AM 56.6°F13.7°C 54.0°F12.2°C 91% Calm Calm -- 29.88 in1011.9 mb 0.01 in0.3 mm 0.06 in/hr1.5 mm/hr 0.03 in0.8 mm
04:20 AM 56.6°F13.7°C 54.3°F12.4°C 92% 4.4 mph NE7.1 kmh NE 5.0 mph8.0 kmh 29.89 in1012.2 mb 0.02 in0.5 mm 0.12 in/hr3.0 mm/hr 0.05 in1.3 mm
04:30 AM 56.6°F13.7°C 54.0°F12.2°C 91% 3.7 mph E6.0 kmh E 7.0 mph11.3 kmh 29.89 in1012.2 mb 0.02 in0.5 mm 0.12 in/hr3.0 mm/hr 0.06 in1.5 mm
04:40 AM 56.5°F13.6°C 54.2°F12.3°C 92% 0.6 mph NE1.0 kmh NE 1.0 mph1.6 kmh 29.89 in1012.2 mb 0.02 in0.5 mm 0.12 in/hr3.0 mm/hr 0.08 in2.0 mm
04:50 AM 56.3°F13.5°C 54.0°F12.2°C 92% 4.0 mph ENE6.4 kmh ENE 7.0 mph11.3 kmh 29.89 in1012.2 mb 0.01 in0.3 mm 0.06 in/hr1.5 mm/hr 0.09 in2.3 mm
05:00 AM 56.2°F13.4°C 54.2°F12.3°C 93% 2.6 mph ENE4.2 kmh ENE 4.0 mph6.4 kmh 29.90 in1012.5 mb 0.02 in0.5 mm 0.02 in/hr0.5 mm/hr 0.11 in2.8 mm
05:10 AM 56.0°F13.3°C 53.7°F12.1°C 92% 4.6 mph E7.4 kmh E 7.0 mph11.3 kmh 29.90 in1012.5 mb 0.02 in0.5 mm 0.12 in/hr3.0 mm/hr 0.13 in3.3 mm
05:20 AM 55.7°F13.2°C 53.4°F11.9°C 92% 4.3 mph NE6.9 kmh NE 8.0 mph12.9 kmh 29.90 in1012.5 mb 0.03 in0.8 mm 0.18 in/hr4.6 mm/hr 0.16 in4.1 mm
05:30 AM 55.3°F12.9°C 52.7°F11.5°C 91% 4.4 mph E7.1 kmh E 8.0 mph12.9 kmh 29.91 in1012.9 mb 0.03 in0.8 mm 0.18 in/hr4.6 mm/hr 0.19 in4.8 mm
05:40 AM 55.1°F12.8°C 52.5°F11.4°C 91% 3.7 mph E6.0 kmh E 4.0 mph6.4 kmh 29.91 in1012.9 mb 0.03 in0.8 mm 0.18 in/hr4.6 mm/hr 0.22 in5.6 mm
05:50 AM 54.9°F12.7°C 52.3°F11.3°C 91% 2.2 mph E3.5 kmh E 4.0 mph6.4 kmh 29.91 in1012.9 mb 0.02 in0.5 mm 0.12 in/hr3.0 mm/hr 0.24 in6.1 mm
06:00 AM 54.8°F12.7°C 52.5°F11.4°C 92% 1.7 mph ENE2.7 kmh ENE 3.0 mph4.8 kmh 29.91 in1012.9 mb 0.02 in0.5 mm 0.02 in/hr0.5 mm/hr 0.26 in6.6 mm
06:10 AM 54.7°F12.6°C 52.4°F11.3°C 92% 2.8 mph NE4.5 kmh NE 6.0 mph9.7 kmh 29.92 in1013.2 mb 0.02 in0.5 mm 0.12 in/hr3.0 mm/hr 0.28 in7.1 mm
06:20 AM 54.6°F12.6°C 52.0°F11.1°C 91% 6.1 mph NE9.8 kmh NE 9.0 mph14.5 kmh 29.92 in1013.2 mb 0.02 in0.5 mm 0.12 in/hr3.0 mm/hr 0.29 in7.4 mm
06:30 AM 54.4°F12.4°C 51.8°F11.0°C 91% 4.4 mph ENE7.1 kmh ENE 6.0 mph9.7 kmh 29.93 in1013.5 mb 0.02 in0.5 mm 0.12 in/hr3.0 mm/hr 0.30 in7.6 mm
06:40 AM 54.3°F12.4°C 51.7°F10.9°C 91% 2.5 mph NE4.0 kmh NE 4.0 mph6.4 kmh 29.93 in1013.5 mb 0.01 in0.3 mm 0.06 in/hr1.5 mm/hr 0.31 in7.9 mm
06:50 AM 54.3°F12.4°C 52.0°F11.1°C 92% 1.1 mph ENE1.8 kmh ENE 2.0 mph3.2 kmh 29.94 in1013.9 mb 0.02 in0.5 mm 0.12 in/hr3.0 mm/hr 0.32 in8.1 mm
07:00 AM 54.3°F12.4°C 52.0°F11.1°C 92% 1.2 mph NE1.9 kmh NE 2.0 mph3.2 kmh 29.94 in1013.9 mb 0.02 in0.5 mm 0.02 in/hr0.5 mm/hr 0.34 in8.6 mm
07:10 AM 54.2°F12.3°C 51.9°F11.1°C 92% 2.5 mph N4.0 kmh N 4.0 mph6.4 kmh 29.95 in1014.2 mb 0.02 in0.5 mm 0.12 in/hr3.0 mm/hr 0.35 in8.9 mm
07:20 AM 54.2°F12.3°C 51.9°F11.1°C 92% 3.0 mph N4.8 kmh N 5.0 mph8.0 kmh 29.95 in1014.2 mb 0.01 in0.3 mm 0.06 in/hr1.5 mm/hr 0.36 in9.1 mm
07:44 AM 54.1°F12.3°C 51.8°F11.0°C 92% 4.7 mph NE7.6 kmh NE 6.0 mph9.7 kmh 29.95 in1014.2 mb 0.02 in0.5 mm 0.05 in/hr1.3 mm/hr 0.41 in10.4 mm
07:50 AM 53.9°F12.2°C 51.3°F10.7°C 91% 1.5 mph N2.4 kmh N 4.0 mph6.4 kmh 29.95 in1014.2 mb 0.04 in1.0 mm 0.40 in/hr10.2 mm/hr 0.42 in10.7 mm
08:00 AM 53.9°F12.2°C 51.6°F10.9°C 92% 3.5 mph NNE5.6 kmh NNE 5.0 mph8.0 kmh 29.95 in1014.2 mb 0.02 in0.5 mm 0.02 in/hr0.5 mm/hr 0.43 in10.9 mm
08:10 AM 53.8°F12.1°C 51.5°F10.8°C 92% 1.4 mph NNE2.3 kmh NNE 3.0 mph4.8 kmh 29.95 in1014.2 mb 0.02 in0.5 mm 0.12 in/hr3.0 mm/hr 0.45 in11.4 mm
08:20 AM 53.8°F12.1°C 51.8°F11.0°C 93% 0.5 mph N0.8 kmh N 1.0 mph1.6 kmh 29.96 in1014.6 mb 0.02 in0.5 mm 0.12 in/hr3.0 mm/hr 0.47 in11.9 mm
08:30 AM 53.9°F12.2°C 51.9°F11.1°C 93% 1.4 mph N2.3 kmh N 2.0 mph3.2 kmh 29.96 in1014.6 mb 0.01 in0.3 mm 0.06 in/hr1.5 mm/hr 0.47 in11.9 mm
08:40 AM 54.0°F12.2°C 52.0°F11.1°C 93% 0.9 mph NW1.4 kmh NW 2.0 mph3.2 kmh 29.96 in1014.6 mb 0.02 in0.5 mm 0.12 in/hr3.0 mm/hr 0.49 in12.4 mm
08:50 AM 54.1°F12.3°C 51.8°F11.0°C 92% 1.8 mph NW2.9 kmh NW 3.0 mph4.8 kmh 29.96 in1014.6 mb 0.02 in0.5 mm 0.12 in/hr3.0 mm/hr 0.50 in12.7 mm
09:00 AM 54.1°F12.3°C 51.6°F10.9°C 91% 1.7 mph N2.7 kmh N 3.0 mph4.8 kmh 29.97 in1014.9 mb 0.01 in0.3 mm 0.01 in/hr0.3 mm/hr 0.51 in13.0 mm
09:10 AM 54.3°F12.4°C 52.0°F11.1°C 92% 1.5 mph NE2.4 kmh NE 3.0 mph4.8 kmh 29.97 in1014.9 mb 0.01 in0.3 mm 0.06 in/hr1.5 mm/hr 0.52 in13.2 mm
09:20 AM 54.4°F12.4°C 51.8°F11.0°C 91% 2.5 mph N4.0 kmh N 4.0 mph6.4 kmh 29.98 in1015.2 mb 0.02 in0.5 mm 0.12 in/hr3.0 mm/hr 0.54 in13.7 mm
09:30 AM 54.5°F12.5°C 51.6°F10.9°C 90% 3.7 mph NNW6.0 kmh NNW 5.0 mph8.0 kmh 29.98 in1015.2 mb 0.02 in0.5 mm 0.12 in/hr3.0 mm/hr 0.54 in13.7 mm
09:40 AM 54.6°F12.6°C 52.0°F11.1°C 91% 1.1 mph NW1.8 kmh NW 3.0 mph4.8 kmh 29.98 in1015.2 mb 0.01 in0.3 mm 0.06 in/hr1.5 mm/hr 0.55 in14.0 mm
09:50 AM 54.7°F12.6°C 52.1°F11.2°C 91% 2.6 mph NE4.2 kmh NE 4.0 mph6.4 kmh 29.98 in1015.2 mb 0.02 in0.5 mm 0.12 in/hr3.0 mm/hr 0.57 in14.5 mm
10:00 AM 54.6°F12.6°C 52.0°F11.1°C 91% 3.0 mph NW4.8 kmh NW 4.0 mph6.4 kmh 29.99 in1015.6 mb 0.02 in0.5 mm 0.02 in/hr0.5 mm/hr 0.58 in14.7 mm
10:10 AM 54.7°F12.6°C 52.4°F11.3°C 92% 2.2 mph NNW3.5 kmh NNW 3.0 mph4.8 kmh 29.99 in1015.6 mb 0.02 in0.5 mm 0.12 in/hr3.0 mm/hr 0.60 in15.2 mm
10:20 AM 54.8°F12.7°C 52.2°F11.2°C 91% 2.9 mph NW4.7 kmh NW 5.0 mph8.0 kmh 29.99 in1015.6 mb 0.02 in0.5 mm 0.12 in/hr3.0 mm/hr 0.61 in15.5 mm
10:30 AM 54.8°F12.7°C 52.2°F11.2°C 91% 3.4 mph NNW5.5 kmh NNW 6.0 mph9.7 kmh 30.00 in1015.9 mb 0.02 in0.5 mm 0.12 in/hr3.0 mm/hr 0.63 in16.0 mm
10:40 AM 54.8°F12.7°C 52.5°F11.4°C 92% 3.8 mph NW6.1 kmh NW 4.0 mph6.4 kmh 30.00 in1015.9 mb 0.01 in0.3 mm 0.06 in/hr1.5 mm/hr 0.64 in16.3 mm
10:50 AM 54.9°F12.7°C 52.6°F11.4°C 92% 4.9 mph NW7.9 kmh NW 6.0 mph9.7 kmh 30.00 in1015.9 mb 0.01 in0.3 mm 0.06 in/hr1.5 mm/hr 0.65 in16.5 mm
11:00 AM 55.0°F12.8°C 52.4°F11.3°C 91% 3.7 mph NW6.0 kmh NW 5.0 mph8.0 kmh 30.00 in1015.9 mb 0.01 in0.3 mm 0.01 in/hr0.3 mm/hr 0.65 in16.5 mm
11:10 AM 55.2°F12.9°C 52.6°F11.4°C 91% 3.9 mph WNW6.3 kmh WNW 5.0 mph8.0 kmh 30.00 in1015.9 mb 0.01 in0.3 mm 0.06 in/hr1.5 mm/hr 0.66 in16.8 mm
11:20 AM 55.2°F12.9°C 52.3°F11.3°C 90% 2.2 mph NW3.5 kmh NW 4.0 mph6.4 kmh 30.00 in1015.9 mb 0.01 in0.3 mm 0.06 in/hr1.5 mm/hr 0.67 in17.0 mm
11:30 AM 55.4°F13.0°C 52.8°F11.6°C 91% 1.3 mph NW2.1 kmh NW 1.0 mph1.6 kmh 30.00 in1015.9 mb 0.01 in0.3 mm 0.06 in/hr1.5 mm/hr 0.68 in17.3 mm
11:40 AM 55.6°F13.1°C 53.0°F11.7°C 91% 1.0 mph W1.6 kmh W 4.0 mph6.4 kmh 30.00 in1015.9 mb 0.01 in0.3 mm 0.06 in/hr1.5 mm/hr 0.69 in17.5 mm
11:50 AM 55.8°F13.2°C 52.9°F11.6°C 90% 1.5 mph NNW2.4 kmh NNW 2.0 mph3.2 kmh 30.00 in1015.9 mb 0.01 in0.3 mm 0.06 in/hr1.5 mm/hr 0.69 in17.5 mm
12:00 PM 55.9°F13.3°C 53.0°F11.7°C 90% 2.3 mph NNW3.7 kmh NNW 5.0 mph8.0 kmh 30.00 in1015.9 mb 0.01 in0.3 mm 0.01 in/hr0.3 mm/hr 0.70 in17.8 mm
12:10 PM 56.0°F13.3°C 53.1°F11.7°C 90% 1.6 mph NNW2.6 kmh NNW 4.0 mph6.4 kmh 30.00 in1015.9 mb 0.01 in0.3 mm 0.06 in/hr1.5 mm/hr 0.71 in18.0 mm
12:20 PM 56.1°F13.4°C 53.2°F11.8°C 90% 2.2 mph WNW3.5 kmh WNW 4.0 mph6.4 kmh 30.01 in1016.3 mb 0.01 in0.3 mm 0.06 in/hr1.5 mm/hr 0.72 in18.3 mm
12:30 PM 56.2°F13.4°C 53.3°F11.8°C 90% 2.6 mph NW4.2 kmh NW 3.0 mph4.8 kmh 30.00 in1015.9 mb 0.01 in0.3 mm 0.06 in/hr1.5 mm/hr 0.72 in18.3 mm
12:40 PM 56.3°F13.5°C 53.4°F11.9°C 90% 1.3 mph WNW2.1 kmh WNW 3.0 mph4.8 kmh 30.01 in1016.3 mb 0.01 in0.3 mm 0.06 in/hr1.5 mm/hr 0.73 in18.5 mm
12:50 PM 56.3°F13.5°C 53.4°F11.9°C 90% 0.4 mph NW0.6 kmh NW 3.0 mph4.8 kmh 30.01 in1016.3 mb 0.00 in0.0 mm 0.00 in/hr0.0 mm/hr 0.73 in18.5 mm
01:00 PM 56.6°F13.7°C 53.7°F12.1°C 90% 1.8 mph NNE2.9 kmh NNE 3.0 mph4.8 kmh 30.01 in1016.3 mb 0.01 in0.3 mm 0.01 in/hr0.3 mm/hr 0.74 in18.8 mm
01:10 PM 56.8°F13.8°C 53.6°F12.0°C 89% 1.8 mph NNW2.9 kmh NNW 4.0 mph6.4 kmh 30.00 in1015.9 mb 0.00 in0.0 mm 0.00 in/hr0.0 mm/hr 0.74 in18.8 mm
01:20 PM 57.1°F13.9°C 53.6°F12.0°C 88% Calm Calm -- 30.00 in1015.9 mb 0.01 in0.3 mm 0.06 in/hr1.5 mm/hr 0.75 in19.1 mm
01:30 PM 57.4°F14.1°C 53.2°F11.8°C 86% 2.0 mph NNW3.2 kmh NNW 3.0 mph4.8 kmh 30.00 in1015.9 mb 0.00 in0.0 mm 0.00 in/hr0.0 mm/hr 0.76 in19.3 mm
01:40 PM 57.7°F14.3°C 53.6°F12.0°C 86% Calm Calm -- 30.00 in1015.9 mb 0.01 in0.3 mm 0.06 in/hr1.5 mm/hr 0.76 in19.3 mm
01:50 PM 58.3°F14.6°C 53.2°F11.8°C 83% 1.1 mph E1.8 kmh E 2.0 mph3.2 kmh 30.00 in1015.9 mb 0.00 in0.0 mm 0.00 in/hr0.0 mm/hr 0.76 in19.3 mm
02:00 PM 58.7°F14.8°C 53.6°F12.0°C 83% 2.9 mph N4.7 kmh N 4.0 mph6.4 kmh 30.00 in1015.9 mb 0.00 in0.0 mm 0.00 in/hr0.0 mm/hr 0.76 in19.3 mm
02:10 PM 58.9°F14.9°C 53.4°F11.9°C 82% 0.7 mph NW1.1 kmh NW 5.0 mph8.0 kmh 30.00 in1015.9 mb 0.00 in0.0 mm 0.00 in/hr0.0 mm/hr 0.76 in19.3 mm
02:20 PM 59.1°F15.1°C 53.3°F11.8°C 81% 2.2 mph NNW3.5 kmh NNW 4.0 mph6.4 kmh 30.00 in1015.9 mb 0.01 in0.3 mm 0.06 in/hr1.5 mm/hr 0.76 in19.3 mm
02:30 PM 59.5°F15.3°C 53.3°F11.8°C 80% 0.2 mph NW0.3 kmh NW 1.0 mph1.6 kmh 30.00 in1015.9 mb 0.00 in0.0 mm 0.00 in/hr0.0 mm/hr 0.76 in19.3 mm
02:40 PM 59.9°F15.5°C 54.4°F12.4°C 82% 2.1 mph NW3.4 kmh NW 4.0 mph6.4 kmh 30.00 in1015.9 mb 0.00 in0.0 mm 0.00 in/hr0.0 mm/hr 0.76 in19.3 mm
02:50 PM 60.1°F15.6°C 54.6°F12.6°C 82% 1.7 mph WNW2.7 kmh WNW 3.0 mph4.8 kmh 30.00 in1015.9 mb 0.00 in0.0 mm 0.00 in/hr0.0 mm/hr 0.76 in19.3 mm
03:00 PM 60.2°F15.7°C 53.3°F11.8°C 78% Calm Calm -- 30.00 in1015.9 mb 0.00 in0.0 mm 0.00 in/hr0.0 mm/hr 0.76 in19.3 mm
03:10 PM 60.2°F15.7°C 53.3°F11.8°C 78% 2.5 mph NW4.0 kmh NW 4.0 mph6.4 kmh 30.00 in1015.9 mb 0.00 in0.0 mm 0.00 in/hr0.0 mm/hr 0.76 in19.3 mm
03:20 PM 60.6°F15.9°C 53.3°F11.8°C 77% 2.0 mph NW3.2 kmh NW 2.0 mph3.2 kmh 30.00 in1015.9 mb 0.00 in0.0 mm 0.00 in/hr0.0 mm/hr 0.76 in19.3 mm
03:30 PM 60.7°F15.9°C 53.8°F12.1°C 78% 1.8 mph NNW2.9 kmh NNW 2.0 mph3.2 kmh 30.00 in1015.9 mb 0.00 in0.0 mm 0.00 in/hr0.0 mm/hr 0.76 in19.3 mm
03:40 PM 60.8°F16.0°C 53.2°F11.8°C 76% 0.2 mph WNW0.3 kmh WNW 2.0 mph3.2 kmh 30.01 in1016.3 mb 0.00 in0.0 mm 0.00 in/hr0.0 mm/hr 0.76 in19.3 mm
03:50 PM 60.9°F16.1°C 52.9°F11.6°C 75% 2.0 mph WNW3.2 kmh WNW 3.0 mph4.8 kmh 30.00 in1015.9 mb 0.00 in0.0 mm 0.00 in/hr0.0 mm/hr 0.76 in19.3 mm
04:00 PM 60.8°F16.0°C 53.2°F11.8°C 76% 1.3 mph NW2.1 kmh NW 3.0 mph4.8 kmh 30.00 in1015.9 mb 0.00 in0.0 mm 0.00 in/hr0.0 mm/hr 0.76 in19.3 mm
04:10 PM 60.8°F16.0°C 53.5°F11.9°C 77% 4.0 mph WSW6.4 kmh WSW 5.0 mph8.0 kmh 30.00 in1015.9 mb 0.00 in0.0 mm 0.00 in/hr0.0 mm/hr 0.76 in19.3 mm
04:20 PM 60.6°F15.9°C 53.4°F11.9°C 77% 2.3 mph WSW3.7 kmh WSW 4.0 mph6.4 kmh 30.01 in1016.3 mb 0.00 in0.0 mm 0.00 in/hr0.0 mm/hr 0.76 in19.3 mm
04:30 PM 60.4°F15.8°C 53.5°F11.9°C 78% 4.4 mph WSW7.1 kmh WSW 6.0 mph9.7 kmh 30.01 in1016.3 mb 0.00 in0.0 mm 0.00 in/hr0.0 mm/hr 0.76 in19.3 mm
04:40 PM 60.1°F15.6°C 53.2°F11.8°C 78% 2.3 mph SW3.7 kmh SW 4.0 mph6.4 kmh 30.01 in1016.3 mb 0.00 in0.0 mm 0.00 in/hr0.0 mm/hr 0.76 in19.3 mm
04:50 PM 60.0°F15.6°C 53.5°F11.9°C 79% 3.6 mph W5.8 kmh W 8.0 mph12.9 kmh 30.00 in1015.9 mb 0.00 in0.0 mm 0.00 in/hr0.0 mm/hr 0.76 in19.3 mm
05:20 PM 60.2°F15.7°C 53.7°F12.1°C 79% 3.9 mph W6.3 kmh W 6.0 mph9.7 kmh 30.01 in1016.3 mb 0.00 in0.0 mm 0.00 in/hr0.0 mm/hr 0.76 in19.3 mm
05:30 PM 60.4°F15.8°C 53.2°F11.8°C 77% 6.0 mph SW9.7 kmh SW 8.0 mph12.9 kmh 30.01 in1016.3 mb 0.00 in0.0 mm 0.00 in/hr0.0 mm/hr 0.76 in19.3 mm
05:40 PM 60.3°F15.7°C 53.0°F11.7°C 77% 2.8 mph SW4.5 kmh SW 3.0 mph4.8 kmh 30.01 in1016.3 mb 0.00 in0.0 mm 0.00 in/hr0.0 mm/hr 0.76 in19.3 mm
05:50 PM 60.1°F15.6°C 53.2°F11.8°C 78% 3.3 mph W5.3 kmh W 5.0 mph8.0 kmh 30.01 in1016.3 mb 0.00 in0.0 mm 0.00 in/hr0.0 mm/hr 0.76 in19.3 mm
06:00 PM 59.9°F15.5°C 53.3°F11.8°C 79% 4.8 mph NW7.7 kmh NW 7.0 mph11.3 kmh 30.02 in1016.6 mb 0.00 in0.0 mm 0.00 in/hr0.0 mm/hr 0.76 in19.3 mm
06:10 PM 59.5°F15.3°C 53.3°F11.8°C 80% 1.0 mph SW1.6 kmh SW 4.0 mph6.4 kmh 30.02 in1016.6 mb 0.00 in0.0 mm 0.00 in/hr0.0 mm/hr 0.76 in19.3 mm
06:20 PM 59.1°F15.1°C 53.3°F11.8°C 81% 0.7 mph W1.1 kmh W 2.0 mph3.2 kmh 30.02 in1016.6 mb 0.00 in0.0 mm 0.00 in/hr0.0 mm/hr 0.76 in19.3 mm
06:30 PM 58.7°F14.8°C 53.5°F11.9°C 83% 1.5 mph SSW2.4 kmh SSW 3.0 mph4.8 kmh 30.02 in1016.6 mb 0.00 in0.0 mm 0.00 in/hr0.0 mm/hr 0.76 in19.3 mm
06:40 PM 58.4°F14.7°C 53.9°F12.2°C 85% 1.1 mph SW1.8 kmh SW 3.0 mph4.8 kmh 30.02 in1016.6 mb 0.00 in0.0 mm 0.00 in/hr0.0 mm/hr 0.76 in19.3 mm
06:50 PM 58.2°F14.6°C 54.0°F12.2°C 86% 3.4 mph WSW5.5 kmh WSW 5.0 mph8.0 kmh 30.02 in1016.6 mb 0.00 in0.0 mm 0.00 in/hr0.0 mm/hr 0.76 in19.3 mm
07:00 PM 57.9°F14.4°C 53.7°F12.1°C 86% 2.6 mph W4.2 kmh W 4.0 mph6.4 kmh 30.02 in1016.6 mb 0.00 in0.0 mm 0.00 in/hr0.0 mm/hr 0.76 in19.3 mm
07:10 PM 57.7°F14.3°C 54.2°F12.3°C 88% 3.8 mph SW6.1 kmh SW 4.0 mph6.4 kmh 30.02 in1016.6 mb 0.00 in0.0 mm 0.00 in/hr0.0 mm/hr 0.76 in19.3 mm
07:20 PM 57.6°F14.2°C 53.8°F12.1°C 87% 3.6 mph WSW5.8 kmh WSW 5.0 mph8.0 kmh 30.02 in1016.6 mb 0.00 in0.0 mm 0.00 in/hr0.0 mm/hr 0.76 in19.3 mm
07:30 PM 57.4°F14.1°C 53.6°F12.0°C 87% 3.4 mph WSW5.5 kmh WSW 5.0 mph8.0 kmh 30.02 in1016.6 mb 0.00 in0.0 mm 0.00 in/hr0.0 mm/hr 0.76 in19.3 mm
07:40 PM 57.2°F14.0°C 53.7°F12.1°C 88% 2.9 mph SW4.7 kmh SW 4.0 mph6.4 kmh 30.03 in1016.9 mb 0.00 in0.0 mm 0.00 in/hr0.0 mm/hr 0.76 in19.3 mm
07:50 PM 57.0°F13.9°C 53.5°F11.9°C 88% 0.4 mph SW0.6 kmh SW 1.0 mph1.6 kmh 30.04 in1017.3 mb 0.00 in0.0 mm 0.00 in/hr0.0 mm/hr 0.76 in19.3 mm
08:00 PM 56.8°F13.8°C 53.6°F12.0°C 89% 0.1 mph SW0.2 kmh SW 1.0 mph1.6 kmh 30.04 in1017.3 mb 0.00 in0.0 mm 0.00 in/hr0.0 mm/hr 0.76 in19.3 mm
08:10 PM 56.7°F13.7°C 53.5°F11.9°C 89% Calm Calm -- 30.04 in1017.3 mb 0.00 in0.0 mm 0.00 in/hr0.0 mm/hr 0.76 in19.3 mm
08:20 PM 56.5°F13.6°C 53.6°F12.0°C 90% 0.1 mph WSW0.2 kmh WSW 1.0 mph1.6 kmh 30.05 in1017.6 mb 0.00 in0.0 mm 0.00 in/hr0.0 mm/hr 0.76 in19.3 mm
08:30 PM 56.4°F13.6°C 53.5°F11.9°C 90% 0.4 mph SW0.6 kmh SW 2.0 mph3.2 kmh 30.05 in1017.6 mb 0.00 in0.0 mm 0.00 in/hr0.0 mm/hr 0.76 in19.3 mm
08:40 PM 56.1°F13.4°C 53.2°F11.8°C 90% 0.3 mph WSW0.5 kmh WSW 2.0 mph3.2 kmh 30.06 in1017.9 mb 0.00 in0.0 mm 0.00 in/hr0.0 mm/hr 0.76 in19.3 mm
08:50 PM 55.9°F13.3°C 53.0°F11.7°C 90% 0.7 mph WSW1.1 kmh WSW 1.0 mph1.6 kmh 30.06 in1017.9 mb 0.00 in0.0 mm 0.00 in/hr0.0 mm/hr 0.76 in19.3 mm
09:00 PM 55.6°F13.1°C 52.8°F11.6°C 90% 1.0 mph SW1.6 kmh SW 4.0 mph6.4 kmh 30.06 in1017.9 mb 0.00 in0.0 mm 0.00 in/hr0.0 mm/hr 0.76 in19.3 mm
09:10 PM 55.3°F12.9°C 52.4°F11.3°C 90% 0.3 mph WSW0.5 kmh WSW 1.0 mph1.6 kmh 30.06 in1017.9 mb 0.00 in0.0 mm 0.00 in/hr0.0 mm/hr 0.76 in19.3 mm
09:20 PM 55.0°F12.8°C 52.1°F11.2°C 90% 1.4 mph SW2.3 kmh SW 2.0 mph3.2 kmh 30.06 in1017.9 mb 0.00 in0.0 mm 0.00 in/hr0.0 mm/hr 0.76 in19.3 mm
09:30 PM 54.6°F12.6°C 52.0°F11.1°C 91% 0.1 mph SW0.2 kmh SW 1.0 mph1.6 kmh 30.06 in1017.9 mb 0.00 in0.0 mm 0.00 in/hr0.0 mm/hr 0.76 in19.3 mm
09:40 PM 54.2°F12.3°C 51.6°F10.9°C 91% 0.4 mph WSW0.6 kmh WSW 1.0 mph1.6 kmh 30.06 in1017.9 mb 0.00 in0.0 mm 0.00 in/hr0.0 mm/hr 0.76 in19.3 mm
09:50 PM 53.8°F12.1°C 51.2°F10.7°C 91% Calm Calm -- 30.06 in1017.9 mb 0.00 in0.0 mm 0.00 in/hr0.0 mm/hr 0.76 in19.3 mm
10:00 PM 53.4°F11.9°C 51.1°F10.6°C 92% Calm Calm -- 30.06 in1017.9 mb 0.00 in0.0 mm 0.00 in/hr0.0 mm/hr 0.76 in19.3 mm
10:10 PM 53.1°F11.7°C 51.1°F10.6°C 93% Calm Calm -- 30.07 in1018.3 mb 0.00 in0.0 mm 0.00 in/hr0.0 mm/hr 0.76 in19.3 mm
10:20 PM 52.7°F11.5°C 50.5°F10.3°C 92% Calm Calm -- 30.07 in1018.3 mb 0.00 in0.0 mm 0.00 in/hr0.0 mm/hr 0.76 in19.3 mm
10:30 PM 52.4°F11.3°C 50.4°F10.2°C 93% 0.2 mph WSW0.3 kmh WSW 1.0 mph1.6 kmh 30.07 in1018.3 mb 0.00 in0.0 mm 0.00 in/hr0.0 mm/hr 0.76 in19.3 mm
10:40 PM 52.2°F11.2°C 50.5°F10.3°C 94% 0.2 mph WSW0.3 kmh WSW 1.0 mph1.6 kmh 30.07 in1018.3 mb 0.00 in0.0 mm 0.00 in/hr0.0 mm/hr 0.76 in19.3 mm
10:50 PM 52.1°F11.2°C 50.4°F10.2°C 94% 0.4 mph W0.6 kmh W 2.0 mph3.2 kmh 30.07 in1018.3 mb 0.00 in0.0 mm 0.00 in/hr0.0 mm/hr 0.76 in19.3 mm
11:00 PM 52.0°F11.1°C 50.0°F10.0°C 93% Calm Calm -- 30.07 in1018.3 mb 0.00 in0.0 mm 0.00 in/hr0.0 mm/hr 0.93 in23.6 mm
11:10 PM 51.9°F11.1°C 49.9°F9.9°C 93% Calm Calm -- 30.07 in1018.3 mb 0.00 in0.0 mm 0.00 in/hr0.0 mm/hr 0.93 in23.6 mm
11:20 PM 51.7°F10.9°C 50.0°F10.0°C 94% 1.8 mph SW2.9 kmh SW 3.0 mph4.8 kmh 30.07 in1018.3 mb 0.00 in0.0 mm 0.00 in/hr0.0 mm/hr 0.93 in23.6 mm
11:30 PM 51.6°F10.9°C 49.6°F9.8°C 93% 0.9 mph WSW1.4 kmh WSW 3.0 mph4.8 kmh 30.07 in1018.3 mb 0.00 in0.0 mm 0.00 in/hr0.0 mm/hr 0.93 in23.6 mm
11:40 PM 51.5°F10.8°C 49.5°F9.7°C 93% 1.2 mph WSW1.9 kmh WSW 3.0 mph4.8 kmh 30.07 in1018.3 mb 0.00 in0.0 mm 0.00 in/hr0.0 mm/hr 0.93 in23.6 mm
11:50 PM 51.3°F10.7°C 49.3°F9.6°C 93% Calm Calm -- 30.08 in1018.6 mb 0.00 in0.0 mm 0.00 in/hr0.0 mm/hr 0.93 in23.6 mm